METAR Data
IDs: Format: Raw Decoded Include TAF

Data at: 0754 UTC 03 Aug 2021

KCEC 030746Z AUTO 16004KT 1SM BR VV002 12/11 A3010 RMK AO2 T01170111
KCEC 030721Z AUTO 19004KT 1/2SM FG VV002 12/11 A3011 RMK AO2 T01170111
KCEC 030703Z AUTO 19005KT 1 1/4SM BR OVC002 12/11 A3011 RMK AO2 T01170111
KCEC 030656Z AUTO 20005KT 1 1/2SM BR OVC002 12/11 A3011 RMK AO2 SLP196 T01170106
KCEC 030654Z AUTO 20005KT 1 3/4SM BR OVC002 12/11 A3011 RMK AO2 VIS 1V4
KCEC 030619Z AUTO 16005KT 9SM OVC004 12/11 A3011 RMK AO2 T01220111
KCEC 030556Z AUTO 12003KT 10SM OVC006 12/10 A3012 RMK AO2 SLP199 T01170100 10144 20111 58003
KCEC 030513Z AUTO 00000KT 10SM BKN005 OVC110 12/09 A3012 RMK AO2 T01170094
KCEC 030456Z AUTO 00000KT 10SM SCT004 OVC100 12/09 A3013 RMK AO2 SLP203 T01170094
KCEC 030454Z AUTO 00000KT 10SM SCT004 OVC100 12/09 A3013 RMK AO2
KCEC 030356Z AUTO 31004KT 5SM BR CLR 12/10 A3012 RMK AO2 SLP202 T01220100
KCEC 030256Z AUTO 35004KT 10SM CLR 13/11 A3013 RMK AO2 SLP203 T01330106 56006
KCEC 030216Z AUTO 33005KT 9SM SCT005 13/11 A3013 RMK AO2 T01330106
KCEC 030156Z AUTO 33005KT 10SM BKN005 13/11 A3013 RMK AO2 SLP204 T01330106
KCEC 030056Z AUTO 32006KT 10SM BKN006 14/11 A3014 RMK AO2 SLP206 T01390111
KCEC 022356Z AUTO 29005KT 10SM OVC008 14/11 A3015 RMK AO2 SLP209 T01390106 10156 20133 55006
KCEC 022256Z AUTO 26007KT 10SM BKN009 15/11 A3014 RMK AO2 SLP208 T01500111
KCEC 022220Z AUTO VRB03KT 10SM BKN010 14/11 A3015 RMK AO2 T01440106
KCEC 022156Z AUTO VRB03KT 10SM BKN009 14/11 A3016 RMK AO2 SLP213 T01440106
KCEC 022056Z AUTO 18009KT 10SM OVC009 14/11 A3016 RMK AO2 SLP215 T01440106 50006
KCEC 022007Z AUTO 20007KT 10SM BKN009 OVC013 15/11 A3017 RMK AO2 CIG 008V012 T01500106
KCEC 021956Z AUTO 21009KT 10SM OVC012 14/11 A3016 RMK AO2 SLP215 T01440106
KCEC 021912Z AUTO 20010KT 10SM OVC010 14/11 A3016 RMK AO2 CIG 006V012 T01440106
KCEC 021856Z AUTO 19009KT 10SM OVC009 14/11 A3016 RMK AO2 CIG 006V012 SLP213 T01440106
KCEC 021826Z AUTO 19009KT 9SM BKN006 OVC012 14/11 A3015 RMK AO2 T01390106
KCEC 021819Z AUTO 18011KT 8SM SCT007 OVC012 13/11 A3015 RMK AO2 T01330106
KCEC 021756Z AUTO 18010KT 10SM OVC010 14/11 A3014 RMK AO2 SLP208 T01390106 10144 20111 55000
KCEC 021656Z AUTO 19010KT 10SM OVC009 13/11 A3014 RMK AO2 CIG 006V011 SLP208 T01280106
KCEC 021627Z AUTO 18010KT 10SM OVC009 13/10 A3015 RMK AO2 T01280100
KCEC 021611Z AUTO 19009KT 10SM OVC010 13/11 A3015 RMK AO2 CIG 006V012 T01280106
KCEC 021556Z AUTO 18008KT 10SM BKN006 OVC011 12/11 A3015 RMK AO2 CIG 003V010 SLP209 T01220106
KCEC 021534Z AUTO 18008KT 3SM BR OVC005 12/11 A3015 RMK AO2 CIG 003V007 T01170106
KCEC 021528Z AUTO 17008KT 1 3/4SM BR BKN005 OVC010 12/11 A3015 RMK AO2 T01170106
KCEC 021456Z AUTO 18008KT 10SM BKN006 OVC011 12/11 A3015 RMK AO2 SLP209 T01170106 51008
KCEC 021443Z AUTO 18007KT 3SM BR BKN004 OVC008 12/11 A3015 RMK AO2 T01170106
KCEC 021439Z AUTO 17006KT 1 1/2SM BR OVC004 12/11 A3015 RMK AO2 T01170106
KCEC 021432Z AUTO 17006KT 3/4SM BR OVC004 11/11 A3015 RMK AO2 T01110106
KCEC 021430Z AUTO 19006KT 1SM BR OVC005 11/11 A3015 RMK AO2 T01110106
KCEC 021420Z AUTO 18006KT 1 3/4SM BR OVC005 12/11 A3015 RMK AO2 CIG 003V009 T01170106
KCEC 021405Z AUTO 20006KT 4SM BR BKN005 OVC010 11/11 A3014 RMK AO2 CIG 003V007 T01110106
KCEC 021356Z AUTO 19006KT 2 1/2SM BR BKN004 OVC010 11/10 A3014 RMK AO2 CIG 003V008 SLP208 T01110100
KCEC 021256Z AUTO 17004KT 5SM BR OVC003 11/10 A3013 RMK AO2 CIG 003V008 SLP202 T01110100
KCEC 021156Z AUTO 21004KT 9SM OVC003 11/10 A3012 RMK AO2 SLP200 T01060100 10117 20100 53003
KCEC 021056Z AUTO 19008KT 5SM BR OVC003 11/11 A3011 RMK AO2 SLP196 T01110106
KCEC 021052Z AUTO 18007KT 4SM BR OVC003 11/11 A3011 RMK AO2
KCEC 021042Z AUTO 17005KT 2SM BR OVC003 11/11 A3011 RMK AO2 T01060106
KCEC 021033Z AUTO 17004KT 1 1/4SM BR OVC003 11/10 A3010 RMK AO2 T01060100
KCEC 021024Z AUTO 18005KT 3/4SM BR VV003 11/10 A3010 RMK AO2 T01060100
KCEC 021014Z AUTO 18006KT 1SM BR VV003 11/10 A3011 RMK AO2 T01060100
KCEC 021002Z AUTO 19005KT 3/4SM BR VV003 11/10 A3011 RMK AO2 T01060100
KCEC 020956Z AUTO 20006KT 1 3/4SM BR OVC003 11/10 A3011 RMK AO2 VIS 3/4V4 SLP197 T01060100
KCEC 020948Z AUTO 20006KT 3SM BR OVC003 11/10 A3011 RMK AO2 T01060100
KCEC 020939Z AUTO 20006KT 1 1/2SM BR OVC003 11/10 A3011 RMK AO2 T01060100
KCEC 020921Z AUTO 21006KT 1 1/4SM BR OVC003 11/10 A3011 RMK AO2 T01060100
KCEC 020907Z AUTO 20007KT 3/4SM BR VV003 11/10 A3011 RMK AO2 T01060100
KCEC 020856Z AUTO 20005KT 1SM BR VV003 11/10 A3011 RMK AO2 SLP196 T01060100 55000
KCEC 020849Z AUTO 19006KT 3/4SM BR VV003 11/11 A3011 RMK AO2 T01060106
KCEC 020840Z AUTO 20005KT 1/4SM FG VV002 11/11 A3011 RMK AO2 T01060106
KCEC 020827Z AUTO 18004KT 1/2SM FG VV002 11/11 A3011 RMK AO2 T01110106
KCEC 020818Z AUTO 18006KT 1/4SM FG VV002 11/11 A3011 RMK AO2 T01110106
KCEC 020811Z AUTO 20005KT 1/2SM FG VV002 11/11 A3011 RMK AO2 T01110106
KCEC 020756Z AUTO VRB03KT 1/4SM FG VV002 11/11 A3011 RMK AO2 SLP196 T01060106 401560106
KCEC 020745Z AUTO 20003KT 1/4SM FG VV002 11/11 A3011 RMK AO2 T01110106
KCEC 020656Z AUTO 17006KT 3/4SM BR VV003 11/11 A3011 RMK AO2 SLP195 T01110106
KCEC 020652Z AUTO 16005KT 1SM BR OVC003 11/11 A3011 RMK AO2
KCEC 020641Z AUTO 18005KT 3/4SM BR OVC003 11/11 A3011 RMK AO2 T01110106
KCEC 020627Z AUTO 18007KT 1 1/4SM BR OVC002 11/11 A3011 RMK AO2 T01110106
KCEC 020620Z AUTO 18006KT 3/4SM BR OVC002 11/11 A3011 RMK AO2 T01110106
KCEC 020556Z AUTO 16006KT 1SM BR OVC002 12/11 A3010 RMK AO2 SLP194 T01170106 10144 20117 50004
KCEC 020552Z AUTO 16007KT 1 3/4SM BR OVC002 12/11 A3010 RMK AO2
KCEC 020537Z AUTO 17007KT 3SM BR OVC002 12/11 A3010 RMK AO2 T01170106
KCEC 020513Z AUTO 18007KT 1 3/4SM BR OVC002 12/11 A3010 RMK AO2 T01170106
KCEC 020456Z AUTO 18006KT 3SM BR OVC002 12/11 A3010 RMK AO2 SLP195 T01170106
KCEC 020356Z AUTO 21003KT 10SM OVC002 12/11 A3010 RMK AO2 SLP192 T01170111
KCEC 020349Z AUTO 00000KT 9SM OVC002 12/11 A3010 RMK AO2 T01170111
KCEC 020342Z AUTO 22003KT 2SM BR OVC002 12/11 A3010 RMK AO2 T01170111
KCEC 020340Z AUTO 24003KT 1SM BR BKN002 12/11 A3010 RMK AO2 T01170111
KCEC 020334Z AUTO 00000KT 1/4SM FG VV002 12/11 A3009 RMK AO2 T01170111
KCEC 020325Z AUTO 26004KT 3/4SM BR VV002 12/11 A3009 RMK AO2 T01220111
KCEC 020323Z AUTO 25004KT 2SM BR SCT002 13/11 A3009 RMK AO2 T01280111
KCEC 020256Z AUTO 22005KT 10SM CLR 13/11 A3009 RMK AO2 SLP190 T01330111 55003
KCEC 020156Z AUTO VRB03KT 10SM FEW005 13/12 A3009 RMK AO2 SLP189 T01330117
KCEC 020153Z AUTO 21003KT 10SM FEW005 13/12 A3009 RMK AO2
KCEC 020056Z AUTO 17005KT 9SM OVC004 13/11 A3010 RMK AO2 SLP193 T01280106
KCEC 020042Z AUTO 20007KT 3SM BR OVC003 13/11 A3010 RMK AO2 T01280111
KCEC 020037Z AUTO 18005KT 1 1/2SM BR OVC003 13/11 A3010 RMK AO2 VIS 1/2V5 T01280111
KCEC 020024Z AUTO 20007KT 3/4SM BR OVC003 13/11 A3010 RMK AO2 T01280111
KCEC 020020Z AUTO 18007KT 1 1/2SM BR OVC003 13/11 A3010 RMK AO2 T01280111
KCEC 020014Z AUTO 19008KT 3/4SM BR OVC002 13/11 A3010 RMK AO2 T01280111
KCEC 020003Z AUTO 20009KT 1 1/4SM BR BKN002 13/11 A3009 RMK AO2 T01330111
KCEC 012356Z AUTO 20010KT 2 1/2SM HZ BKN002 14/11 A3009 RMK AO2 VIS 2V4 SLP191 T01390111 10156 20133 55000
KCEC 012256Z AUTO 18007KT 10SM FEW005 15/12 A3009 RMK AO2 SLP190 T01500117
KCEC 012253Z AUTO 17008KT 10SM SCT005 15/12 A3009 RMK AO2
KCEC 012242Z AUTO 17009KT 10SM BKN005 15/12 A3010 RMK AO2 CIG 002V006 T01500117
KCEC 012156Z AUTO 19011KT 9SM OVC004 14/11 A3009 RMK AO2 SLP191 T01440111
KCEC 012151Z AUTO 20010KT 9SM OVC004 14/11 A3009 RMK AO2
KCEC 012138Z AUTO 19009KT 9SM BKN005 16/12 A3009 RMK AO2 T01560117
KCEC 012125Z AUTO 19008KT 9SM SCT007 15/12 A3009 RMK AO2 T01500117
KCEC 012056Z AUTO 20006KT 10SM OVC007 16/12 A3009 RMK AO2 SLP189 T01560117 53006
KCEC 011956Z AUTO VRB04KT 10SM BKN006 14/11 A3008 RMK AO2 SLP186 T01390111